This is the latest recevied weather packets stored in our database for station/object NEWPRT. If no packets are shown the sender has not sent any weather packets the latest 10 day(s).
| Time | Temp. | Humidity | Pressure | Rain* | Wind** | Luminosity | Snow |
|---|---|---|---|---|---|---|---|
| 1778102090 | - | 60% | 1023.6 hPa | 0 mm | - | - | - |
| 1778101767 | - | 58% | 1023.5 hPa | 0 mm | - | - | - |
| 1778101444 | - | 57% | 1023.4 hPa | 0 mm | - | - | - |
| 1778101121 | - | 58% | 1023.3 hPa | 0 mm | - | - | - |
| 1778100799 | - | 57% | 1023.4 hPa | 0 mm | - | - | - |
| 1778100475 | - | 58% | 1023.5 hPa | 0 mm | - | - | - |
| 1778100152 | - | 59% | 1023.6 hPa | 0 mm | - | - | - |
| 1778099829 | - | 58% | 1023.2 hPa | 0 mm | - | - | - |
| 1778099506 | - | 58% | 1023.2 hPa | 0 mm | - | - | - |
| 1778099184 | - | 60% | 1023.5 hPa | 0 mm | - | - | - |
| 1778098860 | - | 59% | 1023.5 hPa | 0 mm | - | - | - |
| 1778098537 | - | 60% | 1023.3 hPa | 0 mm | - | - | - |
| 1778098214 | - | 57% | 1023.1 hPa | 0 mm | - | - | - |
| 1778097891 | - | 58% | 1023.4 hPa | 0 mm | - | - | - |
| 1778097568 | - | 57% | 1023.5 hPa | 0 mm | - | - | - |
| 1778097245 | - | 56% | 1023.3 hPa | 0 mm | - | - | - |
| 1778096922 | - | 57% | 1023.3 hPa | 0 mm | - | - | - |
| 1778096599 | - | 56% | 1023.3 hPa | 0 mm | - | - | - |
| 1778096276 | - | 55% | 1023.3 hPa | 0 mm | - | - | - |
| 1778095953 | - | 56% | 1023.3 hPa | 0 mm | - | - | - |
| 1778095630 | - | 56% | 1023.2 hPa | 0 mm | - | - | - |
| 1778095309 | - | 59% | 1023.4 hPa | 0 mm | - | - | - |
| 1778094984 | - | 58% | 1023.4 hPa | 0 mm | - | - | - |
| 1778094661 | - | 56% | 1023.2 hPa | 0 mm | - | - | - |
| 1778094338 | - | 58% | 1023.3 hPa | 0 mm | - | - | - |
* Rain latest hour (hover to see other rain measurements)
** Current wind speed in m/s (hover to see current wind gust speed)